createdAt,value
2019-04-21T00:00:39.570Z,33.65
2019-04-21T00:02:44.277Z,29.02
2019-04-21T00:04:54.992Z,30.60
2019-04-21T00:07:10.352Z,29.15
2019-04-21T00:11:18.564Z,27.55
2019-04-21T00:13:12.378Z,25.35
2019-04-21T00:15:18.091Z,28.92
2019-04-21T00:17:14.493Z,25.80
2019-04-21T00:19:22.641Z,26.30
2019-04-21T00:21:31.540Z,24.50
2019-04-21T00:23:41.289Z,25.12
2019-04-21T00:25:38.831Z,26.62
2019-04-21T00:27:46.499Z,28.07
2019-04-21T00:29:51.766Z,25.27
2019-04-21T00:31:56.035Z,25.57
2019-04-21T00:33:44.694Z,25.50
2019-04-21T00:35:52.902Z,22.10
2019-04-21T00:38:08.238Z,22.52
2019-04-21T00:40:16.168Z,27.30
2019-04-21T00:42:16.857Z,24.05
2019-04-21T00:44:11.520Z,29.75
2019-04-21T00:46:11.957Z,29.10
2019-04-21T00:48:29.960Z,29.37
2019-04-21T00:50:34.265Z,28.05
2019-04-21T00:55:01.863Z,31.97
2019-04-21T00:56:57.912Z,29.40
2019-04-21T00:58:59.288Z,26.40
2019-04-21T01:01:01.953Z,26.70
2019-04-21T01:03:13.067Z,27.55
2019-04-21T01:05:18.583Z,25.00
2019-04-21T01:07:23.128Z,27.05
2019-04-21T01:09:28.998Z,29.42
2019-04-21T01:11:31.854Z,26.87
2019-04-21T01:13:41.291Z,30.77
2019-04-21T01:15:43.932Z,26.70
2019-04-21T01:17:40.644Z,25.65
2019-04-21T01:19:48.303Z,28.50
2019-04-21T01:21:28.602Z,30.72
2019-04-21T01:23:30.028Z,25.23
2019-04-21T01:25:38.170Z,24.10
2019-04-21T01:28:06.376Z,25.32
2019-04-21T01:30:02.062Z,26.80
2019-04-21T01:32:08.572Z,26.33
2019-04-21T01:34:03.275Z,27.32
2019-04-21T01:36:03.733Z,25.25
2019-04-21T01:38:19.117Z,25.57
2019-04-21T01:40:25.675Z,25.35
2019-04-21T01:42:15.730Z,27.93
2019-04-21T01:44:24.963Z,31.40
2019-04-21T01:46:22.517Z,28.65
2019-04-21T01:48:24.121Z,28.40
2019-04-21T01:50:29.968Z,28.85
2019-04-21T01:52:47.339Z,33.35
2019-04-21T01:54:56.045Z,26.02
2019-04-21T01:56:58.504Z,24.30
2019-04-21T01:58:51.432Z,24.02
2019-04-21T02:01:03.232Z,21.20
2019-04-21T02:03:28.520Z,21.73
2019-04-21T02:05:17.207Z,25.35
2019-04-21T02:07:15.163Z,22.55
2019-04-21T02:09:14.877Z,26.45
2019-04-21T02:11:23.191Z,24.30
2019-04-21T02:13:23.248Z,27.30
2019-04-21T02:15:33.011Z,23.47
2019-04-21T02:17:28.082Z,24.47
2019-04-21T02:19:31.583Z,27.42
2019-04-21T02:21:36.864Z,28.90
2019-04-21T02:25:51.093Z,26.60
2019-04-21T02:27:57.729Z,28.45
2019-04-21T02:30:02.720Z,23.05
2019-04-21T02:32:10.627Z,24.18
2019-04-21T02:34:08.137Z,26.37
2019-04-21T02:38:23.274Z,23.20
2019-04-21T02:40:25.566Z,22.42
2019-04-21T02:42:22.248Z,24.27
2019-04-21T02:44:28.296Z,20.45
2019-04-21T02:48:39.059Z,18.92
2019-04-21T02:50:43.364Z,19.37
2019-04-21T02:56:55.055Z,21.65
2019-04-21T02:59:17.049Z,20.25
2019-04-21T03:01:25.903Z,23.30
2019-04-21T03:06:00.363Z,22.75
2019-04-21T03:10:09.473Z,23.52
2019-04-21T03:12:11.208Z,23.10
2019-04-21T03:14:24.979Z,21.57
2019-04-21T03:16:18.447Z,24.05
2019-04-21T03:20:16.998Z,23.07
2019-04-21T03:22:22.564Z,20.25
2019-04-21T03:24:18.410Z,22.32
2019-04-21T03:26:36.638Z,30.08
2019-04-21T03:28:32.432Z,27.32
2019-04-21T03:38:49.173Z,24.80
2019-04-21T03:40:47.373Z,26.42
2019-04-21T03:42:59.748Z,30.57
2019-04-21T03:45:06.965Z,29.18
2019-04-21T03:47:08.361Z,30.02
2019-04-21T03:49:04.319Z,35.88
2019-04-21T03:51:13.850Z,34.40
2019-04-21T03:57:32.418Z,26.25
2019-04-21T03:59:16.153Z,26.62
2019-04-21T04:01:32.779Z,27.13
2019-04-21T04:04:06.987Z,25.50
2019-04-21T04:06:20.645Z,26.55
2019-04-21T04:10:47.140Z,15.30
2019-04-21T04:14:44.163Z,23.95
2019-04-21T04:18:53.108Z,25.23
2019-04-21T04:20:51.235Z,23.52
2019-04-21T04:22:56.433Z,25.40
2019-04-21T04:25:04.936Z,25.12
2019-04-21T04:27:11.166Z,26.23
2019-04-21T04:29:59.426Z,29.02
2019-04-21T04:31:17.953Z,27.87
2019-04-21T04:33:21.012Z,25.75
2019-04-21T04:35:34.243Z,28.05
2019-04-21T04:37:26.322Z,28.05
2019-04-21T04:45:41.795Z,23.90
2019-04-21T04:47:47.674Z,24.30
2019-04-21T04:53:47.149Z,23.12
2019-04-21T04:55:58.855Z,24.90
2019-04-21T04:57:59.031Z,27.32
2019-04-21T05:02:11.608Z,29.12
2019-04-21T05:04:08.088Z,29.92
2019-04-21T05:08:49.365Z,32.53
2019-04-21T05:10:38.526Z,34.30
2019-04-21T05:12:33.752Z,34.40
2019-04-21T05:14:39.005Z,29.98
2019-04-21T05:16:55.735Z,30.75
2019-04-21T05:18:52.798Z,26.50
2019-04-21T05:20:52.261Z,27.85
2019-04-21T05:22:44.239Z,27.70
2019-04-21T05:24:43.993Z,25.82
2019-04-21T05:26:43.337Z,29.23
2019-04-21T05:28:44.808Z,31.70
2019-04-21T05:31:06.224Z,28.05
2019-04-21T05:33:27.566Z,26.62
2019-04-21T05:35:45.051Z,35.17
2019-04-21T05:37:56.662Z,33.48
2019-04-21T05:39:57.239Z,32.83
2019-04-21T05:41:53.756Z,37.30
2019-04-21T05:44:09.905Z,31.75
2019-04-21T05:46:13.331Z,37.58
2019-04-21T05:48:28.876Z,37.28
2019-04-21T05:50:23.850Z,39.08
2019-04-21T05:52:27.554Z,34.10
2019-04-21T05:54:38.878Z,39.85
2019-04-21T05:56:36.616Z,37.45
2019-04-21T05:58:46.630Z,35.63
2019-04-21T06:01:10.748Z,36.77
2019-04-21T06:02:57.755Z,31.62
2019-04-21T06:05:18.519Z,36.53
2019-04-21T06:07:13.242Z,36.15
2019-04-21T06:09:13.132Z,35.98
2019-04-21T06:11:23.305Z,33.80
2019-04-21T06:13:19.882Z,35.90
2019-04-21T06:15:21.356Z,37.53
2019-04-21T06:17:23.640Z,36.58
2019-04-21T06:19:35.175Z,38.08
2019-04-21T06:21:31.456Z,36.98
2019-04-21T06:23:32.759Z,34.10
2019-04-21T06:27:50.757Z,35.78
2019-04-21T06:29:46.756Z,33.05
2019-04-21T06:32:16.338Z,36.45
2019-04-21T06:38:03.783Z,36.42
2019-04-21T06:40:15.695Z,36.23
2019-04-21T06:42:22.565Z,38.65
2019-04-21T06:44:12.911Z,40.45
2019-04-21T06:46:20.089Z,38.45
2019-04-21T06:48:24.568Z,42.90
2019-04-21T06:50:22.847Z,44.20
2019-04-21T06:52:46.222Z,43.38
2019-04-21T06:54:33.916Z,38.73
2019-04-21T06:56:36.614Z,43.78
2019-04-21T06:58:35.621Z,45.63
2019-04-21T07:00:35.848Z,39.60
2019-04-21T07:04:50.116Z,39.88
2019-04-21T07:09:02.536Z,39.53
2019-04-21T07:10:59.464Z,36.58
2019-04-21T07:12:57.589Z,33.78
2019-04-21T07:15:04.028Z,34.92
2019-04-21T07:17:12.617Z,36.50
2019-04-21T07:21:13.782Z,31.57
2019-04-21T07:23:16.391Z,36.60
2019-04-21T07:25:23.270Z,38.30
2019-04-21T07:27:29.204Z,36.23
2019-04-21T07:29:34.859Z,34.83
2019-04-21T07:31:41.141Z,33.67
2019-04-21T07:33:53.946Z,34.33
2019-04-21T07:35:41.191Z,35.78
2019-04-21T07:37:40.808Z,30.70
2019-04-21T07:39:43.949Z,32.03
2019-04-21T07:41:47.106Z,30.92
2019-04-21T07:43:57.505Z,32.25
2019-04-21T07:45:58.614Z,30.75
2019-04-21T07:48:09.571Z,31.20
2019-04-21T07:50:28.584Z,30.72
2019-04-21T07:52:42.998Z,32.78
2019-04-21T07:54:49.247Z,31.95
2019-04-21T07:56:33.181Z,29.32
2019-04-21T07:58:54.704Z,30.60
2019-04-21T08:00:59.352Z,36.25
2019-04-21T08:02:58.343Z,29.98
2019-04-21T08:05:10.225Z,29.72
2019-04-21T08:07:06.319Z,37.42
2019-04-21T08:09:08.984Z,30.50
2019-04-21T08:11:01.727Z,34.70
2019-04-21T08:13:18.758Z,31.42
2019-04-21T08:15:19.501Z,27.02
2019-04-21T08:17:16.416Z,27.50
2019-04-21T08:21:30.830Z,28.50
2019-04-21T08:23:31.912Z,25.30
2019-04-21T08:25:34.923Z,28.52
2019-04-21T08:27:44.234Z,25.12
2019-04-21T08:32:03.062Z,22.07
2019-04-21T08:37:48.143Z,22.95
2019-04-21T08:40:04.443Z,21.90
2019-04-21T08:41:57.177Z,24.60
2019-04-21T08:44:02.228Z,24.87
2019-04-21T08:46:08.221Z,25.30
2019-04-21T08:48:10.243Z,25.00
2019-04-21T08:50:16.253Z,22.65
2019-04-21T08:52:34.686Z,23.22
2019-04-21T08:54:21.507Z,22.45
2019-04-21T08:56:37.195Z,22.45
2019-04-21T08:58:47.819Z,21.87
2019-04-21T09:00:57.785Z,21.57
2019-04-21T09:03:17.850Z,20.20
2019-04-21T09:05:17.553Z,24.90
2019-04-21T09:07:25.838Z,20.95
2019-04-21T09:09:25.889Z,20.88
2019-04-21T09:11:22.229Z,21.97
2019-04-21T09:13:35.113Z,19.50
2019-04-21T09:15:30.900Z,18.32
2019-04-21T09:17:34.066Z,19.52
2019-04-21T09:19:51.744Z,19.90
2019-04-21T09:21:51.617Z,20.57
2019-04-21T09:23:46.932Z,18.00
2019-04-21T09:25:52.322Z,19.45
2019-04-21T09:27:55.443Z,17.85
2019-04-21T09:29:49.203Z,20.00
2019-04-21T09:31:46.810Z,17.02
2019-04-21T09:33:50.851Z,17.23
2019-04-21T09:35:56.537Z,18.23
2019-04-21T09:38:01.023Z,17.73
2019-04-21T09:39:57.841Z,19.60
2019-04-21T09:42:02.835Z,17.05
2019-04-21T09:44:07.815Z,15.13
2019-04-21T09:46:06.709Z,20.97
2019-04-21T09:48:13.286Z,18.23
2019-04-21T09:50:12.050Z,19.48
2019-04-21T09:52:21.013Z,16.32
2019-04-21T09:54:24.944Z,18.62
2019-04-21T09:56:31.223Z,17.00
2019-04-21T09:58:32.852Z,19.67
2019-04-21T10:00:30.697Z,18.07
2019-04-21T10:02:38.776Z,16.57
2019-04-21T10:04:33.784Z,16.77
2019-04-21T10:06:35.122Z,37.10
2019-04-21T10:08:36.624Z,17.98
2019-04-21T10:10:38.374Z,15.53
2019-04-21T10:12:41.144Z,16.77
2019-04-21T10:14:43.027Z,15.00
2019-04-21T10:16:46.484Z,15.80
2019-04-21T10:18:48.199Z,15.90
2019-04-21T10:20:51.184Z,18.12
2019-04-21T10:22:53.134Z,16.37
2019-04-21T10:24:54.561Z,26.65
2019-04-21T10:26:56.071Z,15.98
2019-04-21T10:31:00.858Z,16.80
2019-04-21T10:33:02.257Z,16.25
2019-04-21T10:35:05.496Z,16.40
2019-04-21T10:37:07.127Z,17.48
2019-04-21T10:41:13.347Z,15.85
2019-04-21T10:43:18.949Z,15.48
2019-04-21T10:45:19.016Z,16.57
2019-04-21T10:47:20.648Z,15.75
2019-04-21T10:49:22.614Z,16.80
2019-04-21T10:51:25.289Z,17.05
2019-04-21T10:53:29.106Z,19.82
2019-04-21T10:55:44.741Z,17.80
2019-04-21T10:57:37.818Z,20.23
2019-04-21T10:59:45.684Z,18.12
2019-04-21T11:01:43.045Z,16.10
2019-04-21T11:03:53.128Z,17.48
2019-04-21T11:05:56.816Z,19.62
2019-04-21T11:08:09.020Z,17.65
2019-04-21T11:10:02.462Z,17.80
2019-04-21T11:12:04.112Z,14.28
2019-04-21T11:16:08.897Z,13.50
2019-04-21T11:18:10.294Z,15.83
2019-04-21T11:20:12.914Z,13.05
2019-04-21T11:22:14.941Z,14.03
2019-04-21T11:24:17.833Z,11.90
2019-04-21T11:26:20.007Z,13.90
2019-04-21T11:28:22.775Z,12.90
2019-04-21T11:30:25.533Z,11.05
2019-04-21T11:32:27.385Z,13.08
2019-04-21T11:34:29.265Z,13.40
2019-04-21T11:36:31.358Z,13.30
2019-04-21T11:38:52.746Z,12.78
2019-04-21T11:40:38.086Z,9.83
2019-04-21T11:42:41.885Z,12.55
2019-04-21T11:44:44.941Z,11.65
2019-04-21T11:46:46.672Z,9.58
2019-04-21T11:48:48.378Z,10.63
2019-04-21T11:50:50.919Z,9.50
2019-04-21T11:52:52.834Z,12.15
2019-04-21T11:54:55.448Z,12.35
2019-04-21T11:56:57.044Z,12.18
2019-04-21T11:58:59.555Z,11.63
2019-04-21T12:01:03.471Z,10.82
2019-04-21T12:03:05.788Z,10.35
2019-04-21T12:05:07.579Z,10.72
2019-04-21T12:07:11.290Z,9.73
2019-04-21T12:09:12.776Z,10.23
2019-04-21T12:11:14.030Z,10.43
2019-04-21T12:13:18.281Z,8.58
2019-04-21T12:15:20.762Z,9.40
2019-04-21T12:17:22.188Z,11.73
2019-04-21T12:19:24.927Z,10.50
2019-04-21T12:21:29.386Z,11.80
2019-04-21T12:23:30.207Z,11.28
2019-04-21T12:25:40.853Z,10.65
2019-04-21T12:29:46.108Z,10.30
2019-04-21T12:32:01.364Z,9.83
2019-04-21T12:34:05.765Z,11.75
2019-04-21T12:36:07.418Z,9.60
2019-04-21T12:40:10.721Z,9.50
2019-04-21T12:42:14.433Z,9.40
2019-04-21T12:44:15.807Z,10.30
2019-04-21T12:46:18.104Z,13.05
2019-04-21T12:48:20.106Z,13.25
2019-04-21T12:50:21.643Z,10.55
2019-04-21T12:52:24.006Z,8.08
2019-04-21T12:54:25.889Z,8.65
2019-04-21T12:56:27.593Z,9.60
2019-04-21T12:58:29.342Z,10.38
2019-04-21T13:00:31.258Z,8.43
2019-04-21T13:02:33.780Z,9.28
2019-04-21T13:04:35.768Z,9.48
2019-04-21T13:06:37.506Z,9.25
2019-04-21T13:08:45.579Z,10.35
2019-04-21T13:10:42.362Z,9.43
2019-04-21T13:12:43.992Z,8.85
2019-04-21T13:14:45.425Z,9.45
2019-04-21T13:18:49.285Z,10.85
2019-04-21T13:20:51.768Z,10.98
2019-04-21T13:22:54.324Z,7.75
2019-04-21T13:24:55.895Z,7.92
2019-04-21T13:26:59.777Z,7.78
2019-04-21T13:29:00.613Z,12.10
2019-04-21T13:31:02.327Z,10.08
2019-04-21T13:33:05.081Z,8.43
2019-04-21T13:35:06.989Z,11.53
2019-04-21T13:37:09.639Z,8.13
2019-04-21T13:39:52.233Z,12.28
2019-04-21T13:43:32.977Z,9.80
2019-04-21T13:45:34.454Z,8.53
2019-04-21T13:49:39.126Z,7.95
2019-04-21T13:51:41.597Z,7.85
2019-04-21T13:53:43.936Z,7.78
2019-04-21T13:55:46.720Z,7.22
2019-04-21T13:57:50.233Z,9.33
2019-04-21T13:59:53.121Z,9.08
2019-04-21T14:01:54.501Z,8.30
2019-04-21T14:05:58.298Z,8.53
2019-04-21T14:34:44.096Z,8.80
2019-04-21T14:36:46.656Z,8.10
2019-04-21T14:38:48.158Z,10.58
2019-04-21T14:40:50.332Z,9.35
2019-04-21T14:42:52.070Z,9.55
2019-04-21T14:44:54.707Z,8.48
2019-04-21T14:46:57.985Z,11.88
2019-04-21T14:49:01.351Z,12.45
2019-04-21T14:51:04.668Z,9.08
2019-04-21T14:53:08.099Z,9.63
2019-04-21T14:57:27.300Z,8.03
2019-04-21T14:59:28.996Z,8.48
2019-04-21T15:01:31.474Z,9.88
2019-04-21T15:03:34.226Z,8.73
2019-04-21T15:05:35.660Z,9.58
2019-04-21T15:07:37.171Z,8.95
2019-04-21T15:09:39.635Z,9.78
2019-04-21T15:11:42.207Z,11.43
2019-04-21T15:13:43.990Z,11.75
2019-04-21T15:15:45.723Z,9.83
2019-04-21T15:17:47.073Z,8.98
2019-04-21T15:19:58.230Z,8.13
2019-04-21T15:21:52.625Z,9.68
2019-04-21T15:23:54.155Z,12.63
2019-04-21T15:25:56.507Z,9.10
2019-04-21T15:27:59.040Z,8.10
2019-04-21T15:30:00.703Z,8.48
2019-04-21T15:32:02.035Z,9.13
2019-04-21T15:34:03.415Z,10.75
2019-04-21T15:36:05.094Z,9.65
2019-04-21T15:38:07.606Z,10.08
2019-04-21T15:40:18.219Z,9.48
2019-04-21T15:42:12.653Z,9.88
2019-04-21T15:44:14.597Z,13.50
2019-04-21T15:46:16.215Z,10.43
2019-04-21T15:48:18.243Z,8.45
2019-04-21T15:50:21.333Z,8.05
2019-04-21T15:52:25.238Z,10.95
2019-04-21T15:54:27.261Z,8.38
2019-04-21T15:56:33.306Z,7.92
2019-04-21T15:58:39.032Z,7.87
2019-04-21T16:00:58.988Z,7.80
2019-04-21T16:03:00.473Z,7.03
2019-04-21T16:05:02.854Z,8.85
2019-04-21T16:07:05.810Z,10.50
2019-04-21T16:09:08.532Z,7.60
2019-04-21T16:11:11.353Z,9.48
2019-04-21T16:13:14.005Z,8.93
2019-04-21T16:15:16.637Z,8.00
2019-04-21T16:17:19.157Z,11.18
2019-04-21T16:19:20.574Z,9.38
2019-04-21T16:21:22.241Z,10.00
2019-04-21T16:23:24.511Z,7.85
2019-04-21T16:25:26.777Z,10.72
2019-04-21T16:27:29.517Z,9.15
2019-04-21T16:29:31.306Z,10.28
2019-04-21T16:31:34.100Z,9.10
2019-04-21T16:33:36.817Z,10.43
2019-04-21T16:35:39.967Z,9.20
2019-04-21T16:37:41.629Z,10.30
2019-04-21T16:39:43.373Z,8.95
2019-04-21T16:41:44.713Z,9.50
2019-04-21T16:45:48.900Z,8.90
2019-04-21T16:47:53.563Z,10.32
2019-04-21T16:49:53.948Z,10.93
2019-04-21T16:52:16.237Z,10.72
2019-04-21T16:54:21.870Z,14.83
2019-04-21T16:56:31.210Z,13.20
2019-04-21T16:58:41.024Z,15.78
2019-04-21T17:00:57.346Z,11.33
2019-04-21T17:02:50.539Z,12.60
2019-04-21T17:04:52.137Z,13.72
2019-04-21T17:06:53.512Z,12.05
2019-04-21T17:11:07.557Z,13.38
2019-04-21T17:13:00.037Z,10.25
2019-04-21T17:15:18.702Z,13.30
2019-04-21T17:17:26.808Z,12.10
2019-04-21T17:19:17.304Z,11.95
2019-04-21T17:21:13.189Z,11.22
2019-04-21T17:23:15.682Z,9.88
2019-04-21T17:25:18.516Z,12.58
2019-04-21T17:27:20.802Z,11.60
2019-04-21T17:29:22.812Z,8.88
2019-04-21T17:31:24.594Z,10.32
2019-04-21T17:33:28.304Z,11.97
2019-04-21T17:35:29.367Z,11.50
2019-04-21T17:37:32.324Z,10.08
2019-04-21T17:39:34.555Z,10.98
2019-04-21T17:41:43.432Z,10.53
2019-04-21T17:43:39.593Z,11.38
2019-04-21T17:45:41.437Z,13.62
2019-04-21T17:47:49.905Z,11.30
2019-04-21T17:49:48.765Z,11.18
2019-04-21T17:52:06.368Z,11.08
2019-04-21T17:54:17.559Z,10.40
2019-04-21T17:56:51.074Z,10.58
2019-04-21T17:58:36.025Z,12.95
2019-04-21T18:01:06.572Z,12.05
2019-04-21T18:02:51.527Z,10.93
2019-04-21T18:04:58.453Z,11.80
2019-04-21T18:06:52.876Z,10.03
2019-04-21T18:09:15.568Z,10.75
2019-04-21T18:11:10.355Z,12.50
2019-04-21T18:13:21.017Z,14.65
2019-04-21T18:15:47.058Z,11.05
2019-04-21T18:17:42.983Z,13.68
2019-04-21T18:19:47.447Z,11.78
2019-04-21T18:21:54.560Z,9.38
2019-04-21T18:24:05.721Z,10.90
2019-04-21T18:26:07.153Z,11.10
2019-04-21T18:28:02.811Z,9.43
2019-04-21T18:30:34.032Z,13.15
2019-04-21T18:32:39.165Z,16.17
2019-04-21T18:34:52.645Z,12.55
2019-04-21T18:36:49.932Z,13.72
2019-04-21T18:39:12.553Z,11.18
2019-04-21T18:41:01.435Z,14.03
2019-04-21T18:43:42.165Z,12.75
2019-04-21T18:47:31.854Z,12.23
2019-04-21T18:49:23.423Z,13.18
2019-04-21T18:51:54.192Z,12.43
2019-04-21T18:54:14.873Z,14.20
2019-04-21T18:56:05.662Z,10.40
2019-04-21T18:58:05.168Z,11.22
2019-04-21T19:00:15.391Z,11.15
2019-04-21T19:02:14.267Z,12.13
2019-04-21T19:04:20.113Z,12.40
2019-04-21T19:06:26.719Z,10.05
2019-04-21T19:08:38.926Z,12.88
2019-04-21T19:10:49.019Z,11.50
2019-04-21T19:13:16.225Z,11.73
2019-04-21T19:14:46.112Z,13.28
2019-04-21T19:17:13.860Z,11.08
2019-04-21T19:19:09.794Z,11.97
2019-04-21T19:20:53.830Z,12.90
2019-04-21T19:22:57.243Z,11.30
2019-04-21T19:25:07.282Z,11.05
2019-04-21T19:27:12.102Z,12.33
2019-04-21T19:29:19.629Z,12.98
2019-04-21T19:31:20.902Z,11.73
2019-04-21T19:33:16.048Z,13.18
2019-04-21T19:35:07.466Z,13.03
2019-04-21T19:37:13.357Z,13.25
2019-04-21T19:39:23.730Z,12.63
2019-04-21T19:41:27.999Z,14.07
2019-04-21T19:43:41.632Z,13.45
2019-04-21T19:45:33.831Z,14.87
2019-04-21T19:47:44.412Z,15.78
2019-04-21T19:49:49.972Z,17.17
2019-04-21T19:51:43.665Z,14.15
2019-04-21T19:53:48.116Z,17.05
2019-04-21T19:55:38.401Z,15.55
2019-04-21T19:57:41.050Z,16.17
2019-04-21T19:59:48.088Z,15.85
2019-04-21T20:01:48.311Z,18.05
2019-04-21T20:03:55.519Z,16.00
2019-04-21T20:06:02.151Z,16.32
2019-04-21T20:08:12.890Z,18.27
2019-04-21T20:10:25.654Z,20.77
2019-04-21T20:12:22.096Z,20.57
2019-04-21T20:14:46.739Z,17.15
2019-04-21T20:16:31.918Z,18.00
2019-04-21T20:18:24.475Z,21.07
2019-04-21T20:20:15.456Z,20.30
2019-04-21T20:22:16.892Z,17.55
2019-04-21T20:24:23.327Z,21.05
2019-04-21T20:26:33.106Z,18.00
2019-04-21T20:28:41.768Z,20.35
2019-04-21T20:30:43.782Z,19.65
2019-04-21T20:32:48.911Z,19.67
2019-04-21T20:34:55.579Z,17.52
2019-04-21T20:36:56.765Z,18.95
2019-04-21T20:38:49.056Z,19.48
2019-04-21T20:40:52.407Z,17.35
2019-04-21T20:43:09.175Z,18.98
2019-04-21T20:45:22.352Z,20.77
2019-04-21T20:47:07.795Z,20.75
2019-04-21T20:49:07.958Z,18.90
2019-04-21T20:51:18.400Z,21.90
2019-04-21T20:53:23.120Z,21.20
2019-04-21T20:55:18.670Z,17.62
2019-04-21T20:57:26.082Z,18.07
2019-04-21T20:59:30.393Z,18.35
2019-04-21T21:01:35.875Z,17.82
2019-04-21T21:03:39.323Z,17.80
2019-04-21T21:05:37.582Z,18.62
2019-04-21T21:07:50.233Z,19.48
2019-04-21T21:09:57.446Z,20.25
2019-04-21T21:12:11.357Z,19.52
2019-04-21T21:14:05.718Z,17.80
2019-04-21T21:16:10.263Z,21.17
2019-04-21T21:18:06.222Z,17.50
2019-04-21T21:20:07.428Z,18.82
2019-04-21T21:21:59.151Z,18.52
2019-04-21T21:24:10.170Z,19.40
2019-04-21T21:26:16.089Z,19.45
2019-04-21T21:28:10.411Z,19.77
2019-04-21T21:30:20.585Z,21.95
2019-04-21T21:32:30.306Z,23.05
2019-04-21T21:34:33.090Z,22.32
2019-04-21T21:36:33.587Z,21.48
2019-04-21T21:38:37.538Z,23.18
2019-04-21T21:40:38.289Z,24.57
2019-04-21T21:42:32.333Z,23.25
2019-04-21T21:44:31.907Z,26.40
2019-04-21T21:46:49.902Z,24.47
2019-04-21T21:48:51.672Z,24.25
2019-04-21T21:50:50.946Z,22.55
2019-04-21T21:52:57.550Z,22.13
2019-04-21T21:54:47.884Z,22.20
2019-04-21T21:59:01.292Z,24.80
2019-04-21T22:01:06.202Z,22.48
2019-04-21T22:03:14.962Z,23.77
2019-04-21T22:05:16.777Z,20.88
2019-04-21T22:07:16.112Z,21.37
2019-04-21T22:09:16.695Z,22.48
2019-04-21T22:11:18.108Z,24.10
2019-04-21T22:13:22.091Z,22.17
2019-04-21T22:15:26.364Z,24.30
2019-04-21T22:17:41.878Z,24.30
2019-04-21T22:19:52.319Z,23.12
2019-04-21T22:21:53.808Z,21.73
2019-04-21T22:23:47.804Z,21.52
2019-04-21T22:25:41.808Z,23.30
2019-04-21T22:27:43.446Z,23.70
2019-04-21T22:29:50.941Z,23.55
2019-04-21T22:31:48.357Z,24.18
2019-04-21T22:36:00.188Z,23.25
2019-04-21T22:38:12.348Z,23.67
2019-04-21T22:40:13.729Z,21.77
2019-04-21T22:42:13.378Z,19.00
2019-04-21T22:44:28.599Z,19.12
2019-04-21T22:46:30.652Z,22.75
2019-04-21T22:48:32.577Z,22.93
2019-04-21T22:50:38.291Z,24.80
2019-04-21T22:52:41.472Z,25.10
2019-04-21T22:54:44.906Z,25.35
2019-04-21T22:56:57.032Z,25.40
2019-04-21T22:58:51.299Z,31.50
2019-04-21T23:00:57.115Z,23.42
2019-04-21T23:03:03.822Z,34.50
2019-04-21T23:05:02.528Z,26.33
2019-04-21T23:07:10.231Z,28.65
2019-04-21T23:09:08.804Z,23.32
2019-04-21T23:11:12.553Z,25.85
2019-04-21T23:13:19.535Z,24.47
2019-04-21T23:15:19.442Z,25.75
2019-04-21T23:17:38.873Z,25.37
2019-04-21T23:19:38.860Z,23.38
2019-04-21T23:21:48.914Z,25.95
2019-04-21T23:23:50.167Z,22.93
2019-04-21T23:25:45.918Z,27.48
2019-04-21T23:27:58.458Z,25.95
2019-04-21T23:29:58.853Z,24.27
2019-04-21T23:31:59.262Z,23.80
2019-04-21T23:33:48.317Z,25.43
2019-04-21T23:36:00.921Z,25.90
2019-04-21T23:37:58.663Z,26.60
2019-04-21T23:40:01.148Z,25.08
2019-04-21T23:42:02.363Z,30.08
2019-04-21T23:44:06.882Z,22.95
2019-04-21T23:46:11.915Z,27.70
2019-04-21T23:48:23.535Z,24.72
2019-04-21T23:50:27.727Z,24.87
2019-04-21T23:52:17.832Z,25.45
2019-04-21T23:54:20.683Z,22.48
2019-04-21T23:58:29.977Z,23.00
